WZZ5463 EGGW-EDLW
Flight info
| Callsign | WZZ5463 |
|---|---|
| Flight time | 1h 1m |
| Altitude | 33000 |
| Route | MATCH Q295 BRAIN M197 REDFA L620 TACHA DCT PAM L620 SONEB/N0393F230 Z841 DOMEG DOMEG2A |
| Aircraft | A21N/M-SDE3FGHIRWY/LB1 |
Departure
| Time | 2026-05-05 17:00 |
|---|---|
| Airport | London Luton Airport (EGGW) |
Arrival
| Time | 2026-05-05 18:01 |
|---|---|
| Airport | Dortmund Airport (EDLW) |
| Time | Latitude | Longitude | Altitude | Speed | Heading |
|---|---|---|---|---|---|
| 2026-05-05 16:35 | 51.87982 | -0.37203 | 532 ft | 0 kts | 162° |
| 2026-05-05 16:50 | 51.87993 | -0.37209 | 532 ft | 2 kts | 161° |
| 2026-05-05 16:50 | 51.88007 | -0.37217 | 532 ft | 2 kts | 162° |
| 2026-05-05 16:50 | 51.88021 | -0.37224 | 532 ft | 1 kts | 183° |
| 2026-05-05 16:51 | 51.88034 | -0.37213 | 532 ft | 2 kts | 240° |
| 2026-05-05 16:51 | 51.88038 | -0.37194 | 532 ft | 2 kts | 240° |
| 2026-05-05 16:51 | 51.88048 | -0.37176 | 532 ft | 2 kts | 216° |
| 2026-05-05 16:51 | 51.88061 | -0.37165 | 532 ft | 2 kts | 193° |
| 2026-05-05 16:52 | 51.88076 | -0.37163 | 532 ft | 2 kts | 172° |
| 2026-05-05 16:52 | 51.88086 | -0.37167 | 532 ft | 0 kts | 158° |
| 2026-05-05 16:54 | 51.88083 | -0.37165 | 532 ft | 2 kts | 161° |
| 2026-05-05 16:54 | 51.88046 | -0.37145 | 532 ft | 8 kts | 162° |
| 2026-05-05 16:55 | 51.87994 | -0.37117 | 532 ft | 7 kts | 162° |
| 2026-05-05 16:55 | 51.87937 | -0.37087 | 532 ft | 10 kts | 162° |
| 2026-05-05 16:55 | 51.87858 | -0.37043 | 532 ft | 13 kts | 161° |
| 2026-05-05 16:55 | 51.87758 | -0.36991 | 532 ft | 16 kts | 163° |
| 2026-05-05 16:56 | 51.87645 | -0.36947 | 532 ft | 16 kts | 196° |
| 2026-05-05 16:56 | 51.87596 | -0.37109 | 532 ft | 16 kts | 255° |
| 2026-05-05 16:56 | 51.87569 | -0.37286 | 532 ft | 16 kts | 266° |
| 2026-05-05 16:56 | 51.87558 | -0.37450 | 532 ft | 14 kts | 217° |
| 2026-05-05 16:57 | 51.87492 | -0.37567 | 532 ft | 14 kts | 254° |
| 2026-05-05 16:57 | 51.87465 | -0.37724 | 532 ft | 14 kts | 255° |
| 2026-05-05 16:57 | 51.87437 | -0.37881 | 532 ft | 14 kts | 254° |
| 2026-05-05 16:57 | 51.87396 | -0.38026 | 532 ft | 14 kts | 222° |
| 2026-05-05 16:58 | 51.87309 | -0.38098 | 532 ft | 14 kts | 192° |
| 2026-05-05 16:58 | 51.87227 | -0.38159 | 532 ft | 13 kts | 246° |
| 2026-05-05 16:58 | 51.87222 | -0.38283 | 532 ft | 7 kts | 267° |
| 2026-05-05 16:58 | 51.87206 | -0.38282 | 532 ft | 3 kts | 90° |
| 2026-05-05 16:59 | 51.87212 | -0.38254 | 532 ft | 2 kts | 73° |
| 2026-05-05 16:59 | 51.87252 | -0.38018 | 532 ft | 58 kts | 74° |
| 2026-05-05 16:59 | 51.87434 | -0.36969 | 532 ft | 132 kts | 74° |
| 2026-05-05 16:59 | 51.87727 | -0.35256 | 735 ft | 172 kts | 71° |
| 2026-05-05 17:00 | 51.88038 | -0.33436 | 1506 ft | 173 kts | 71° |
| 2026-05-05 17:00 | 51.88361 | -0.31603 | 2342 ft | 170 kts | 71° |
| 2026-05-05 17:00 | 51.88681 | -0.29756 | 2846 ft | 177 kts | 71° |
| 2026-05-05 17:00 | 51.89035 | -0.27740 | 3180 ft | 193 kts | 71° |
| 2026-05-05 17:01 | 51.89415 | -0.25562 | 3513 ft | 210 kts | 72° |
| 2026-05-05 17:01 | 51.89634 | -0.23103 | 3748 ft | 236 kts | 92° |
| 2026-05-05 17:01 | 51.89160 | -0.20496 | 4095 ft | 259 kts | 118° |
| 2026-05-05 17:01 | 51.87846 | -0.18373 | 4630 ft | 275 kts | 148° |
| 2026-05-05 17:02 | 51.86040 | -0.17357 | 5383 ft | 278 kts | 166° |
| 2026-05-05 17:02 | 51.84169 | -0.16630 | 6152 ft | 279 kts | 164° |
| 2026-05-05 17:02 | 51.82336 | -0.15709 | 6911 ft | 281 kts | 160° |
| 2026-05-05 17:02 | 51.80494 | -0.14572 | 7564 ft | 284 kts | 157° |
| 2026-05-05 17:03 | 51.78681 | -0.13334 | 8246 ft | 287 kts | 156° |
| 2026-05-05 17:03 | 51.76894 | -0.11908 | 8901 ft | 290 kts | 143° |
| 2026-05-05 17:03 | 51.75616 | -0.09438 | 9503 ft | 290 kts | 112° |
| 2026-05-05 17:03 | 51.75240 | -0.06300 | 10089 ft | 288 kts | 85° |
| 2026-05-05 17:04 | 51.75514 | -0.03075 | 10522 ft | 298 kts | 79° |
| 2026-05-05 17:04 | 51.75845 | 0.00293 | 10730 ft | 313 kts | 80° |
| 2026-05-05 17:04 | 51.76168 | 0.03816 | 11198 ft | 323 kts | 80° |
| 2026-05-05 17:04 | 51.76476 | 0.07390 | 11788 ft | 326 kts | 81° |
| 2026-05-05 17:05 | 51.76783 | 0.11060 | 12388 ft | 329 kts | 81° |
| 2026-05-05 17:05 | 51.77080 | 0.14669 | 12916 ft | 331 kts | 81° |
| 2026-05-05 17:05 | 51.77383 | 0.18387 | 13506 ft | 335 kts | 81° |
| 2026-05-05 17:05 | 51.77684 | 0.22091 | 14058 ft | 337 kts | 81° |
| 2026-05-05 17:06 | 51.77990 | 0.25858 | 14616 ft | 339 kts | 81° |
| 2026-05-05 17:06 | 51.78295 | 0.29636 | 15142 ft | 342 kts | 81° |
| 2026-05-05 17:06 | 51.78599 | 0.33409 | 15675 ft | 345 kts | 81° |
| 2026-05-05 17:06 | 51.78907 | 0.37243 | 16185 ft | 348 kts | 82° |
| 2026-05-05 17:07 | 51.79219 | 0.41141 | 16694 ft | 351 kts | 82° |
| 2026-05-05 17:07 | 51.79529 | 0.45044 | 17191 ft | 354 kts | 82° |
| 2026-05-05 17:07 | 51.79839 | 0.48974 | 17654 ft | 356 kts | 82° |
| 2026-05-05 17:07 | 51.80152 | 0.52958 | 18146 ft | 359 kts | 82° |
| 2026-05-05 17:08 | 51.80466 | 0.56949 | 18618 ft | 361 kts | 82° |
| 2026-05-05 17:08 | 51.80779 | 0.60965 | 19083 ft | 363 kts | 82° |
| 2026-05-05 17:08 | 51.81155 | 0.65027 | 19527 ft | 366 kts | 79° |
| 2026-05-05 17:08 | 51.81691 | 0.69012 | 19947 ft | 368 kts | 76° |
| 2026-05-05 17:09 | 51.82309 | 0.73044 | 20364 ft | 371 kts | 76° |
| 2026-05-05 17:09 | 51.82934 | 0.77055 | 20755 ft | 374 kts | 76° |
| 2026-05-05 17:09 | 51.83575 | 0.81144 | 21156 ft | 376 kts | 75° |
| 2026-05-05 17:09 | 51.84290 | 0.85187 | 21553 ft | 379 kts | 73° |
| 2026-05-05 17:10 | 51.85042 | 0.89304 | 21954 ft | 381 kts | 73° |
| 2026-05-05 17:10 | 51.85785 | 0.93364 | 22334 ft | 383 kts | 73° |
| 2026-05-05 17:10 | 51.86546 | 0.97531 | 22717 ft | 385 kts | 73° |
| 2026-05-05 17:10 | 51.87301 | 1.01682 | 23095 ft | 387 kts | 73° |
| 2026-05-05 17:11 | 51.88054 | 1.05824 | 23446 ft | 389 kts | 73° |
| 2026-05-05 17:11 | 51.88816 | 1.10036 | 23803 ft | 391 kts | 73° |
| 2026-05-05 17:11 | 51.89575 | 1.14246 | 24143 ft | 394 kts | 73° |
| 2026-05-05 17:11 | 51.90339 | 1.18494 | 24476 ft | 396 kts | 74° |
| 2026-05-05 17:12 | 51.91105 | 1.22761 | 24820 ft | 398 kts | 74° |
| 2026-05-05 17:12 | 51.91881 | 1.27103 | 25159 ft | 400 kts | 74° |
| 2026-05-05 17:12 | 51.92655 | 1.31438 | 25489 ft | 402 kts | 74° |
| 2026-05-05 17:12 | 51.93425 | 1.35760 | 25798 ft | 404 kts | 74° |
| 2026-05-05 17:13 | 51.94204 | 1.40145 | 26097 ft | 407 kts | 74° |
| 2026-05-05 17:13 | 51.94988 | 1.44564 | 26397 ft | 409 kts | 75° |
| 2026-05-05 17:13 | 51.95767 | 1.48969 | 26689 ft | 411 kts | 75° |
| 2026-05-05 17:13 | 51.96545 | 1.53387 | 26981 ft | 413 kts | 75° |
| 2026-05-05 17:14 | 51.97331 | 1.57857 | 27259 ft | 415 kts | 75° |
| 2026-05-05 17:14 | 51.98118 | 1.62343 | 27541 ft | 416 kts | 75° |
| 2026-05-05 17:14 | 51.98917 | 1.66911 | 27828 ft | 418 kts | 76° |
| 2026-05-05 17:14 | 51.99674 | 1.71416 | 28097 ft | 420 kts | 77° |
| 2026-05-05 17:15 | 52.00391 | 1.75996 | 28363 ft | 422 kts | 78° |
| 2026-05-05 17:15 | 52.01108 | 1.80663 | 28615 ft | 424 kts | 78° |
| 2026-05-05 17:15 | 52.01817 | 1.85289 | 28861 ft | 426 kts | 78° |
| 2026-05-05 17:15 | 52.02536 | 1.89969 | 29122 ft | 428 kts | 78° |
| 2026-05-05 17:16 | 52.03257 | 1.94653 | 29367 ft | 430 kts | 78° |
| 2026-05-05 17:16 | 52.03974 | 1.99325 | 29502 ft | 435 kts | 78° |
| 2026-05-05 17:16 | 52.04709 | 2.04118 | 29617 ft | 439 kts | 78° |
| 2026-05-05 17:16 | 52.05444 | 2.08932 | 29737 ft | 444 kts | 78° |
| 2026-05-05 17:17 | 52.06196 | 2.13867 | 29854 ft | 449 kts | 78° |
| 2026-05-05 17:17 | 52.06943 | 2.18776 | 29963 ft | 453 kts | 78° |
| 2026-05-05 17:17 | 52.07695 | 2.23737 | 30075 ft | 457 kts | 78° |
| 2026-05-05 17:17 | 52.08455 | 2.28755 | 30181 ft | 461 kts | 78° |
| 2026-05-05 17:18 | 52.09218 | 2.33814 | 30285 ft | 465 kts | 78° |
| 2026-05-05 17:18 | 52.09989 | 2.38943 | 30389 ft | 468 kts | 78° |
| 2026-05-05 17:18 | 52.11566 | 2.49231 | 30587 ft | 474 kts | 76° |
| 2026-05-05 17:19 | 52.12510 | 2.54366 | 30752 ft | 475 kts | 75° |
| 2026-05-05 17:19 | 52.13484 | 2.59486 | 30967 ft | 476 kts | 75° |
| 2026-05-05 17:19 | 52.14467 | 2.64625 | 31171 ft | 476 kts | 75° |
| 2026-05-05 17:19 | 52.15435 | 2.69701 | 31389 ft | 475 kts | 75° |
| 2026-05-05 17:20 | 52.16412 | 2.74837 | 31609 ft | 475 kts | 75° |
| 2026-05-05 17:20 | 52.17383 | 2.79966 | 31843 ft | 474 kts | 75° |
| 2026-05-05 17:20 | 52.18346 | 2.85075 | 32066 ft | 473 kts | 75° |
| 2026-05-05 17:20 | 52.19299 | 2.90146 | 32277 ft | 473 kts | 75° |
| 2026-05-05 17:21 | 52.20254 | 2.95242 | 32484 ft | 473 kts | 75° |
| 2026-05-05 17:21 | 52.21218 | 3.00406 | 32686 ft | 473 kts | 75° |
| 2026-05-05 17:21 | 52.22164 | 3.05484 | 32876 ft | 473 kts | 75° |
| 2026-05-05 17:22 | 52.24051 | 3.15697 | 32933 ft | 473 kts | 76° |
| 2026-05-05 17:22 | 52.25511 | 3.26129 | 32934 ft | 471 kts | 83° |
| 2026-05-05 17:23 | 52.26246 | 3.36641 | 32931 ft | 470 kts | 88° |
| 2026-05-05 17:23 | 52.26751 | 3.47259 | 32928 ft | 470 kts | 88° |
| 2026-05-05 17:24 | 52.27249 | 3.57883 | 32923 ft | 471 kts | 88° |
| 2026-05-05 17:24 | 52.27744 | 3.68467 | 32923 ft | 471 kts | 89° |
| 2026-05-05 17:25 | 52.28237 | 3.79135 | 32923 ft | 471 kts | 89° |
| 2026-05-05 17:25 | 52.28718 | 3.89758 | 32925 ft | 472 kts | 89° |
| 2026-05-05 17:26 | 52.29190 | 4.00407 | 32924 ft | 472 kts | 89° |
| 2026-05-05 17:26 | 52.29652 | 4.11015 | 32933 ft | 472 kts | 89° |
| 2026-05-05 17:27 | 52.30109 | 4.21734 | 32934 ft | 472 kts | 89° |
| 2026-05-05 17:27 | 52.30528 | 4.31801 | 32926 ft | 472 kts | 89° |
| 2026-05-05 17:28 | 52.30963 | 4.42439 | 32914 ft | 471 kts | 89° |
| 2026-05-05 17:28 | 52.31389 | 4.53083 | 32905 ft | 471 kts | 89° |
| 2026-05-05 17:29 | 52.31805 | 4.63742 | 32904 ft | 471 kts | 89° |
| 2026-05-05 17:29 | 52.32212 | 4.74419 | 32905 ft | 471 kts | 90° |
| 2026-05-05 17:30 | 52.32610 | 4.85074 | 32899 ft | 471 kts | 90° |
| 2026-05-05 17:30 | 52.32966 | 4.95740 | 32894 ft | 469 kts | 92° |
| 2026-05-05 17:31 | 52.32646 | 5.06356 | 32894 ft | 465 kts | 100° |
| 2026-05-05 17:31 | 52.31416 | 5.16622 | 32892 ft | 461 kts | 108° |
| 2026-05-05 17:32 | 52.29360 | 5.26430 | 32897 ft | 459 kts | 115° |
| 2026-05-05 17:32 | 52.27173 | 5.36206 | 32795 ft | 462 kts | 110° |
| 2026-05-05 17:32 | 52.26296 | 5.41214 | 32292 ft | 463 kts | 108° |
| 2026-05-05 17:33 | 52.25445 | 5.46329 | 31781 ft | 463 kts | 108° |
| 2026-05-05 17:33 | 52.24611 | 5.51347 | 31286 ft | 464 kts | 108° |
| 2026-05-05 17:33 | 52.23752 | 5.56440 | 30781 ft | 465 kts | 108° |
| 2026-05-05 17:33 | 52.22895 | 5.61465 | 30287 ft | 466 kts | 108° |
| 2026-05-05 17:34 | 52.22024 | 5.66529 | 29791 ft | 467 kts | 109° |
| 2026-05-05 17:34 | 52.21140 | 5.71629 | 29297 ft | 468 kts | 109° |
| 2026-05-05 17:34 | 52.20261 | 5.76673 | 28806 ft | 469 kts | 109° |
| 2026-05-05 17:34 | 52.19368 | 5.81786 | 28310 ft | 471 kts | 109° |
| 2026-05-05 17:35 | 52.18464 | 5.86936 | 27819 ft | 472 kts | 109° |
| 2026-05-05 17:35 | 52.17566 | 5.92037 | 27334 ft | 474 kts | 108° |
| 2026-05-05 17:35 | 52.16654 | 5.97207 | 26840 ft | 476 kts | 109° |
| 2026-05-05 17:35 | 52.15742 | 6.02361 | 26351 ft | 477 kts | 108° |
| 2026-05-05 17:36 | 52.14817 | 6.07564 | 25865 ft | 478 kts | 108° |
| 2026-05-05 17:36 | 52.13902 | 6.12706 | 25380 ft | 479 kts | 108° |
| 2026-05-05 17:36 | 52.12984 | 6.17859 | 24912 ft | 468 kts | 108° |
| 2026-05-05 17:36 | 52.12080 | 6.22918 | 24496 ft | 463 kts | 108° |
| 2026-05-05 17:37 | 52.11179 | 6.27929 | 24076 ft | 464 kts | 108° |
| 2026-05-05 17:37 | 52.10273 | 6.32959 | 23654 ft | 465 kts | 108° |
| 2026-05-05 17:37 | 52.09378 | 6.37916 | 23255 ft | 465 kts | 108° |
| 2026-05-05 17:37 | 52.08456 | 6.43002 | 22846 ft | 465 kts | 108° |
| 2026-05-05 17:38 | 52.07544 | 6.48022 | 22444 ft | 466 kts | 108° |
| 2026-05-05 17:38 | 52.06633 | 6.53028 | 22050 ft | 466 kts | 108° |
| 2026-05-05 17:38 | 52.05716 | 6.58057 | 21646 ft | 467 kts | 107° |
| 2026-05-05 17:38 | 52.04791 | 6.63115 | 21244 ft | 468 kts | 107° |
| 2026-05-05 17:39 | 52.03867 | 6.68147 | 20920 ft | 467 kts | 108° |
| 2026-05-05 17:39 | 52.02934 | 6.73162 | 20870 ft | 467 kts | 109° |
| 2026-05-05 17:39 | 52.01689 | 6.78017 | 20866 ft | 465 kts | 118° |
| 2026-05-05 17:39 | 52.00072 | 6.82598 | 20871 ft | 464 kts | 122° |
| 2026-05-05 17:40 | 51.98388 | 6.87057 | 20868 ft | 464 kts | 123° |
| 2026-05-05 17:40 | 51.96715 | 6.91435 | 20871 ft | 464 kts | 123° |
| 2026-05-05 17:40 | 51.95019 | 6.95873 | 20861 ft | 463 kts | 123° |
| 2026-05-05 17:40 | 51.93340 | 7.00275 | 20643 ft | 457 kts | 123° |
| 2026-05-05 17:41 | 51.91635 | 7.04549 | 19796 ft | 447 kts | 128° |
| 2026-05-05 17:41 | 51.89391 | 7.07845 | 18788 ft | 438 kts | 148° |
| 2026-05-05 17:41 | 51.86689 | 7.10007 | 17721 ft | 427 kts | 155° |
| 2026-05-05 17:41 | 51.84054 | 7.11972 | 16633 ft | 415 kts | 155° |
| 2026-05-05 17:42 | 51.81498 | 7.13922 | 15537 ft | 405 kts | 154° |
| 2026-05-05 17:42 | 51.78962 | 7.15703 | 14473 ft | 394 kts | 162° |
| 2026-05-05 17:42 | 51.76397 | 7.16822 | 13613 ft | 381 kts | 166° |
| 2026-05-05 17:42 | 51.73866 | 7.17762 | 12745 ft | 369 kts | 167° |
| 2026-05-05 17:43 | 51.71396 | 7.18654 | 11872 ft | 360 kts | 167° |
| 2026-05-05 17:43 | 51.69022 | 7.19507 | 11010 ft | 352 kts | 167° |
| 2026-05-05 17:43 | 51.66668 | 7.20416 | 10127 ft | 344 kts | 165° |
| 2026-05-05 17:43 | 51.64432 | 7.21460 | 9424 ft | 333 kts | 162° |
| 2026-05-05 17:44 | 51.62278 | 7.22632 | 8794 ft | 321 kts | 160° |
| 2026-05-05 17:44 | 51.60203 | 7.23810 | 8155 ft | 311 kts | 160° |
| 2026-05-05 17:44 | 51.58193 | 7.24951 | 7518 ft | 303 kts | 160° |
| 2026-05-05 17:44 | 51.56243 | 7.26054 | 6887 ft | 295 kts | 159° |
| 2026-05-05 17:45 | 51.54374 | 7.27248 | 6261 ft | 289 kts | 155° |
| 2026-05-05 17:45 | 51.52575 | 7.28591 | 5653 ft | 285 kts | 153° |
| 2026-05-05 17:45 | 51.50804 | 7.30009 | 5091 ft | 280 kts | 151° |
| 2026-05-05 17:45 | 51.49089 | 7.31398 | 4537 ft | 277 kts | 151° |
| 2026-05-05 17:46 | 51.47499 | 7.33038 | 3955 ft | 270 kts | 130° |
| 2026-05-05 17:46 | 51.46619 | 7.35587 | 3463 ft | 259 kts | 107° |
| 2026-05-05 17:46 | 51.46082 | 7.38308 | 2984 ft | 258 kts | 104° |
| 2026-05-05 17:46 | 51.45584 | 7.41042 | 2576 ft | 254 kts | 95° |
| 2026-05-05 17:47 | 51.45747 | 7.43722 | 2493 ft | 233 kts | 69° |
| 2026-05-05 17:47 | 51.46401 | 7.45998 | 2436 ft | 221 kts | 58° |
| 2026-05-05 17:47 | 51.47192 | 7.48078 | 2232 ft | 213 kts | 57° |
| 2026-05-05 17:47 | 51.47898 | 7.50000 | 1992 ft | 193 kts | 58° |
| 2026-05-05 17:48 | 51.48523 | 7.51795 | 1734 ft | 176 kts | 59° |
| 2026-05-05 17:48 | 51.49098 | 7.53449 | 1467 ft | 161 kts | 58° |
| 2026-05-05 17:48 | 51.49618 | 7.54931 | 1225 ft | 145 kts | 58° |
| 2026-05-05 17:48 | 51.50106 | 7.56319 | 1045 ft | 142 kts | 58° |
| 2026-05-05 17:49 | 51.50591 | 7.57704 | 869 ft | 142 kts | 57° |
| 2026-05-05 17:49 | 51.51078 | 7.59070 | 665 ft | 141 kts | 57° |
| 2026-05-05 17:49 | 51.51561 | 7.60435 | 479 ft | 140 kts | 58° |
| 2026-05-05 17:49 | 51.52020 | 7.61748 | 496 ft | 138 kts | 58° |
| 2026-05-05 17:50 | 51.52513 | 7.63145 | 970 ft | 149 kts | 58° |
| 2026-05-05 17:50 | 51.53034 | 7.64615 | 1608 ft | 158 kts | 58° |
| 2026-05-05 17:50 | 51.53590 | 7.66184 | 2201 ft | 173 kts | 59° |
| 2026-05-05 17:50 | 51.54212 | 7.67913 | 2581 ft | 186 kts | 59° |
| 2026-05-05 17:51 | 51.54888 | 7.69761 | 2927 ft | 195 kts | 59° |
| 2026-05-05 17:51 | 51.55581 | 7.71626 | 2988 ft | 197 kts | 59° |
| 2026-05-05 17:51 | 51.56331 | 7.73474 | 2986 ft | 197 kts | 49° |
| 2026-05-05 17:51 | 51.57545 | 7.74428 | 2965 ft | 200 kts | 6° |
| 2026-05-05 17:52 | 51.58889 | 7.73895 | 2991 ft | 206 kts | 333° |
| 2026-05-05 17:52 | 51.59883 | 7.72216 | 2989 ft | 212 kts | 300° |
| 2026-05-05 17:52 | 51.60135 | 7.69823 | 2974 ft | 228 kts | 263° |
| 2026-05-05 17:52 | 51.59429 | 7.67563 | 2904 ft | 233 kts | 221° |
| 2026-05-05 17:53 | 51.58007 | 7.66366 | 2977 ft | 232 kts | 197° |
| 2026-05-05 17:53 | 51.56495 | 7.65531 | 2999 ft | 232 kts | 199° |
| 2026-05-05 17:53 | 51.54978 | 7.64626 | 2999 ft | 232 kts | 200° |
| 2026-05-05 17:53 | 51.53477 | 7.63696 | 3001 ft | 232 kts | 200° |
| 2026-05-05 17:54 | 51.51965 | 7.62745 | 3002 ft | 232 kts | 201° |
| 2026-05-05 17:54 | 51.50580 | 7.61413 | 2994 ft | 233 kts | 221° |
| 2026-05-05 17:54 | 51.49410 | 7.59645 | 3012 ft | 234 kts | 224° |
| 2026-05-05 17:54 | 51.48239 | 7.57799 | 3010 ft | 233 kts | 224° |
| 2026-05-05 17:55 | 51.47082 | 7.55990 | 3009 ft | 233 kts | 224° |
| 2026-05-05 17:55 | 51.45921 | 7.54199 | 3006 ft | 233 kts | 223° |
| 2026-05-05 17:55 | 51.44750 | 7.52412 | 3006 ft | 233 kts | 223° |
| 2026-05-05 17:55 | 51.43573 | 7.50624 | 3008 ft | 234 kts | 223° |
| 2026-05-05 17:56 | 51.42380 | 7.48816 | 3006 ft | 234 kts | 223° |
| 2026-05-05 17:56 | 51.41256 | 7.46944 | 2991 ft | 234 kts | 238° |
| 2026-05-05 17:56 | 51.40828 | 7.44510 | 2985 ft | 230 kts | 277° |
| 2026-05-05 17:56 | 51.41327 | 7.42155 | 3005 ft | 225 kts | 310° |
| 2026-05-05 17:57 | 51.42508 | 7.40618 | 2999 ft | 217 kts | 343° |
| 2026-05-05 17:57 | 51.43971 | 7.40398 | 2823 ft | 210 kts | 17° |
| 2026-05-05 17:57 | 51.45203 | 7.41540 | 2603 ft | 208 kts | 51° |
| 2026-05-05 17:57 | 51.45896 | 7.43550 | 2521 ft | 207 kts | 66° |
| 2026-05-05 17:58 | 51.46465 | 7.45673 | 2483 ft | 207 kts | 65° |
| 2026-05-05 17:58 | 51.47080 | 7.47689 | 2313 ft | 194 kts | 62° |
| 2026-05-05 17:58 | 51.47703 | 7.49493 | 2053 ft | 178 kts | 59° |
| 2026-05-05 17:58 | 51.48297 | 7.51162 | 1791 ft | 165 kts | 59° |
| 2026-05-05 17:59 | 51.48828 | 7.52671 | 1547 ft | 150 kts | 59° |
| 2026-05-05 17:59 | 51.49326 | 7.54091 | 1342 ft | 143 kts | 59° |
| 2026-05-05 17:59 | 51.49807 | 7.55464 | 1172 ft | 142 kts | 58° |
| 2026-05-05 17:59 | 51.50294 | 7.56852 | 989 ft | 142 kts | 58° |
| 2026-05-05 18:00 | 51.50774 | 7.58217 | 801 ft | 141 kts | 58° |
| 2026-05-05 18:00 | 51.51259 | 7.59586 | 584 ft | 140 kts | 58° |
| 2026-05-05 18:00 | 51.51731 | 7.60921 | 428 ft | 136 kts | 58° |
| 2026-05-05 18:00 | 51.52080 | 7.61918 | 427 ft | 63 kts | 61° |
| 2026-05-05 18:01 | 51.52194 | 7.62276 | 427 ft | 16 kts | 101° |
| 2026-05-05 18:01 | 51.52104 | 7.62385 | 427 ft | 16 kts | 154° |
| 2026-05-05 18:01 | 51.52072 | 7.62389 | 427 ft | 0 kts | 195° |
| 2026-05-05 18:01 | 51.52071 | 7.62389 | 427 ft | 0 kts | 195° |
| 2026-05-05 18:02 | 51.52040 | 7.62351 | 427 ft | 9 kts | 230° |
| 2026-05-05 18:02 | 51.52005 | 7.62258 | 427 ft | 10 kts | 241° |
| 2026-05-05 18:02 | 51.51966 | 7.62145 | 427 ft | 12 kts | 241° |
| 2026-05-05 18:02 | 51.51921 | 7.62017 | 427 ft | 14 kts | 241° |
| 2026-05-05 18:03 | 51.51871 | 7.61875 | 427 ft | 15 kts | 240° |
| 2026-05-05 18:03 | 51.51816 | 7.61720 | 427 ft | 16 kts | 241° |
| 2026-05-05 18:03 | 51.51758 | 7.61556 | 427 ft | 14 kts | 240° |
| 2026-05-05 18:03 | 51.51718 | 7.61446 | 427 ft | 7 kts | 230° |
| 2026-05-05 18:04 | 51.51680 | 7.61437 | 427 ft | 4 kts | 158° |
| 2026-05-05 18:04 | 51.51651 | 7.61461 | 427 ft | 2 kts | 152° |
| 2026-05-05 18:04 | 51.51644 | 7.61467 | 427 ft | 0 kts | 152° |